This is the latest recevied weather packets stored in our database for station/object WD7CGF. If no packets are shown the sender has not sent any weather packets the latest 10 day(s).
| Time | Temp. | Humidity | Pressure | Rain* | Wind** | Luminosity | Snow |
|---|---|---|---|---|---|---|---|
| 1777586297 | 22.78° C | 32% | 1018 hPa | 0 mm | - | - | - |
| 1777585698 | 23.33° C | 34% | 1018 hPa | 0 mm | - | - | - |
| 1777585108 | 22.78° C | 35% | 1018.3 hPa | 0 mm | - | - | - |
| 1777584496 | 22.22° C | 33% | 1018.5 hPa | 0 mm | - | - | - |
| 1777583906 | 22.22° C | 33% | 1018.5 hPa | 0 mm | - | - | - |
| 1777583292 | 23.33° C | 32% | 1018.5 hPa | 0 mm | - | - | - |
| 1777582703 | 22.78° C | 38% | 1018.5 hPa | 0 mm | - | - | - |
| 1777582111 | 22.22° C | 33% | 1018.5 hPa | 0 mm | - | - | - |
| 1777581499 | 22.22° C | 33% | 1018.8 hPa | 0 mm | - | - | - |
| 1777580904 | 22.22° C | 34% | 1018.7 hPa | 0 mm | - | - | - |
| 1777579706 | 22.22° C | 39% | 1019.8 hPa | 0 mm | - | - | - |
| 1777579095 | 22.22° C | 40% | 1019.9 hPa | 0 mm | - | - | - |
| 1777578503 | 22.22° C | 38% | 1019.9 hPa | 0 mm | - | - | - |
| 1777577894 | 22.22° C | 42% | 1020.3 hPa | 0 mm | - | - | - |
| 1777577302 | 22.22° C | 39% | 1019.5 hPa | 0 mm | - | - | - |
| 1777576708 | 21.67° C | 39% | 1019.5 hPa | 0 mm | - | - | - |
| 1777576100 | 21.67° C | 42% | 1020.5 hPa | 0 mm | - | - | - |
| 1777575508 | 21.11° C | 43% | 1020.7 hPa | 0 mm | - | - | - |
| 1777574896 | 21.11° C | 47% | 1020.7 hPa | 0 mm | - | - | - |
| 1777574311 | 21.11° C | 45% | 1020 hPa | 0 mm | - | - | - |
| 1777573699 | 20° C | 49% | 1020.3 hPa | 0 mm | - | - | - |
| 1777573107 | 19.44° C | 49% | 1020.3 hPa | 0 mm | - | - | - |
| 1777572495 | 18.89° C | 50% | 1020.5 hPa | 0 mm | - | - | - |
| 1777571901 | 18.33° C | 49% | 1020.7 hPa | 0 mm | - | - | - |
| 1777571290 | 17.78° C | 53% | 1020.7 hPa | 0 mm | - | - | - |
* Rain since midnight (hover to see other rain measurements)
** Current wind speed in m/s (hover to see current wind gust speed)